sensor_id;sensor_type;location;lat;lon;timestamp;temperature;humidity
59146;DHT22;44928;53.074;6.646;2023-04-01T00:00:30;10.20;99.90
59146;DHT22;44928;53.074;6.646;2023-04-01T00:02:56;10.20;99.90
59146;DHT22;44928;53.074;6.646;2023-04-01T00:05:22;10.20;99.90
59146;DHT22;44928;53.074;6.646;2023-04-01T00:07:50;10.20;99.90
59146;DHT22;44928;53.074;6.646;2023-04-01T00:10:17;10.20;99.90
59146;DHT22;44928;53.074;6.646;2023-04-01T00:12:42;10.20;99.90
59146;DHT22;44928;53.074;6.646;2023-04-01T00:15:10;10.20;99.90
59146;DHT22;44928;53.074;6.646;2023-04-01T00:17:36;10.20;99.90
59146;DHT22;44928;53.074;6.646;2023-04-01T00:20:03;10.20;99.90
59146;DHT22;44928;53.074;6.646;2023-04-01T00:22:29;10.20;99.90
59146;DHT22;44928;53.074;6.646;2023-04-01T00:24:54;10.20;99.90
59146;DHT22;44928;53.074;6.646;2023-04-01T00:27:20;10.10;99.90
59146;DHT22;44928;53.074;6.646;2023-04-01T00:29:46;10.20;99.90
59146;DHT22;44928;53.074;6.646;2023-04-01T00:32:14;10.20;99.90
59146;DHT22;44928;53.074;6.646;2023-04-01T00:34:40;10.10;99.90
59146;DHT22;44928;53.074;6.646;2023-04-01T00:37:07;10.20;99.90
59146;DHT22;44928;53.074;6.646;2023-04-01T00:39:34;10.10;99.90
59146;DHT22;44928;53.074;6.646;2023-04-01T00:42:02;10.20;99.90
59146;DHT22;44928;53.074;6.646;2023-04-01T00:44:31;10.20;99.90
59146;DHT22;44928;53.074;6.646;2023-04-01T00:46:58;10.20;99.90
59146;DHT22;44928;53.074;6.646;2023-04-01T00:49:30;10.20;99.90
59146;DHT22;44928;53.074;6.646;2023-04-01T00:51:59;10.20;99.90
59146;DHT22;44928;53.074;6.646;2023-04-01T00:54:27;10.10;99.90
59146;DHT22;44928;53.074;6.646;2023-04-01T00:57:02;10.10;99.90
59146;DHT22;44928;53.074;6.646;2023-04-01T00:59:33;10.10;99.90
59146;DHT22;44928;53.074;6.646;2023-04-01T01:02:02;10.10;99.90
59146;DHT22;44928;53.074;6.646;2023-04-01T01:04:33;10.10;99.90
59146;DHT22;44928;53.074;6.646;2023-04-01T01:37:05;10.00;99.90
59146;DHT22;44928;53.074;6.646;2023-04-01T01:39:33;10.00;99.90
59146;DHT22;44928;53.074;6.646;2023-04-01T01:42:04;10.00;99.90
59146;DHT22;44928;53.074;6.646;2023-04-01T01:44:32;10.00;99.90
59146;DHT22;44928;53.074;6.646;2023-04-01T01:47:00;10.00;99.90
59146;DHT22;44928;53.074;6.646;2023-04-01T01:49:27;10.00;99.90
59146;DHT22;44928;53.074;6.646;2023-04-01T01:51:56;10.00;99.90
59146;DHT22;44928;53.074;6.646;2023-04-01T01:54:22;10.00;99.90
59146;DHT22;44928;53.074;6.646;2023-04-01T01:56:51;10.00;99.90
59146;DHT22;44928;53.074;6.646;2023-04-01T01:59:20;10.00;99.90
59146;DHT22;44928;53.074;6.646;2023-04-01T02:01:49;10.00;99.90
59146;DHT22;44928;53.074;6.646;2023-04-01T02:04:18;10.00;99.90
59146;DHT22;44928;53.074;6.646;2023-04-01T02:06:59;10.00;99.90
59146;DHT22;44928;53.074;6.646;2023-04-01T02:09:25;10.00;99.90
59146;DHT22;44928;53.074;6.646;2023-04-01T02:12:11;10.00;99.90
59146;DHT22;44928;53.074;6.646;2023-04-01T02:14:57;10.00;99.90
59146;DHT22;44928;53.074;6.646;2023-04-01T02:17:27;10.00;99.90
59146;DHT22;44928;53.074;6.646;2023-04-01T02:19:57;10.00;99.90
59146;DHT22;44928;53.074;6.646;2023-04-01T02:22:29;10.00;99.90
59146;DHT22;44928;53.074;6.646;2023-04-01T02:24:58;10.00;99.90
59146;DHT22;44928;53.074;6.646;2023-04-01T02:27:25;10.00;99.90
59146;DHT22;44928;53.074;6.646;2023-04-01T02:29:51;10.00;99.90
59146;DHT22;44928;53.074;6.646;2023-04-01T02:32:19;10.00;99.90
59146;DHT22;44928;53.074;6.646;2023-04-01T02:34:46;10.00;99.90
59146;DHT22;44928;53.074;6.646;2023-04-01T02:37:13;10.00;99.90
59146;DHT22;44928;53.074;6.646;2023-04-01T02:39:39;10.00;99.90
59146;DHT22;44928;53.074;6.646;2023-04-01T02:42:05;10.00;99.90
59146;DHT22;44928;53.074;6.646;2023-04-01T02:44:31;10.00;99.90
59146;DHT22;44928;53.074;6.646;2023-04-01T02:46:57;10.00;99.90
59146;DHT22;44928;53.074;6.646;2023-04-01T02:49:23;10.00;99.90
59146;DHT22;44928;53.074;6.646;2023-04-01T02:51:49;10.00;99.90
59146;DHT22;44928;53.074;6.646;2023-04-01T02:54:15;10.00;99.90
59146;DHT22;44928;53.074;6.646;2023-04-01T02:56:40;10.00;99.90
59146;DHT22;44928;53.074;6.646;2023-04-01T02:59:06;10.00;99.90
59146;DHT22;44928;53.074;6.646;2023-04-01T03:01:32;10.00;99.90
59146;DHT22;44928;53.074;6.646;2023-04-01T03:03:58;10.00;99.90
59146;DHT22;44928;53.074;6.646;2023-04-01T03:06:24;10.00;99.90
59146;DHT22;44928;53.074;6.646;2023-04-01T03:08:49;10.00;99.90
59146;DHT22;44928;53.074;6.646;2023-04-01T03:11:15;10.00;99.90
59146;DHT22;44928;53.074;6.646;2023-04-01T03:13:41;10.00;99.90
59146;DHT22;44928;53.074;6.646;2023-04-01T03:16:07;10.00;99.90
59146;DHT22;44928;53.074;6.646;2023-04-01T03:18:33;10.00;99.90
59146;DHT22;44928;53.074;6.646;2023-04-01T03:21:16;10.00;99.90
59146;DHT22;44928;53.074;6.646;2023-04-01T03:23:42;10.00;99.90
59146;DHT22;44928;53.074;6.646;2023-04-01T03:26:08;10.00;99.90
59146;DHT22;44928;53.074;6.646;2023-04-01T03:28:34;10.00;99.90
59146;DHT22;44928;53.074;6.646;2023-04-01T03:31:00;10.00;99.90
59146;DHT22;44928;53.074;6.646;2023-04-01T03:33:25;10.00;99.90
59146;DHT22;44928;53.074;6.646;2023-04-01T03:35:51;10.00;99.90
59146;DHT22;44928;53.074;6.646;2023-04-01T03:38:17;10.00;99.90
59146;DHT22;44928;53.074;6.646;2023-04-01T03:40:44;10.00;99.90
59146;DHT22;44928;53.074;6.646;2023-04-01T03:43:10;10.00;99.90
59146;DHT22;44928;53.074;6.646;2023-04-01T03:45:44;10.00;99.90
59146;DHT22;44928;53.074;6.646;2023-04-01T03:48:10;10.00;99.90
59146;DHT22;44928;53.074;6.646;2023-04-01T03:50:36;10.00;99.90
59146;DHT22;44928;53.074;6.646;2023-04-01T03:53:01;10.00;99.90
59146;DHT22;44928;53.074;6.646;2023-04-01T03:55:27;10.00;99.90
59146;DHT22;44928;53.074;6.646;2023-04-01T03:57:53;10.00;99.90
59146;DHT22;44928;53.074;6.646;2023-04-01T04:00:19;10.00;99.90
59146;DHT22;44928;53.074;6.646;2023-04-01T04:02:45;10.00;99.90
59146;DHT22;44928;53.074;6.646;2023-04-01T04:05:11;10.00;99.90
59146;DHT22;44928;53.074;6.646;2023-04-01T04:07:37;10.00;99.90
59146;DHT22;44928;53.074;6.646;2023-04-01T04:10:03;9.90;99.90
59146;DHT22;44928;53.074;6.646;2023-04-01T04:12:29;10.00;99.90
59146;DHT22;44928;53.074;6.646;2023-04-01T04:14:56;10.00;99.90
59146;DHT22;44928;53.074;6.646;2023-04-01T04:17:22;9.90;99.90
59146;DHT22;44928;53.074;6.646;2023-04-01T04:19:48;9.90;99.90
59146;DHT22;44928;53.074;6.646;2023-04-01T04:22:13;9.90;99.90
59146;DHT22;44928;53.074;6.646;2023-04-01T04:24:39;9.90;99.90
59146;DHT22;44928;53.074;6.646;2023-04-01T04:27:05;10.00;99.90
59146;DHT22;44928;53.074;6.646;2023-04-01T04:29:31;9.90;99.90
59146;DHT22;44928;53.074;6.646;2023-04-01T04:31:57;10.00;99.90
59146;DHT22;44928;53.074;6.646;2023-04-01T04:34:22;10.00;99.90
59146;DHT22;44928;53.074;6.646;2023-04-01T04:36:49;10.00;99.90
59146;DHT22;44928;53.074;6.646;2023-04-01T04:39:15;9.90;99.90
59146;DHT22;44928;53.074;6.646;2023-04-01T04:41:41;9.90;99.90
59146;DHT22;44928;53.074;6.646;2023-04-01T04:44:07;9.90;99.90
59146;DHT22;44928;53.074;6.646;2023-04-01T04:46:33;9.90;99.90
59146;DHT22;44928;53.074;6.646;2023-04-01T04:48:58;9.90;99.90
59146;DHT22;44928;53.074;6.646;2023-04-01T04:51:25;9.90;99.90
59146;DHT22;44928;53.074;6.646;2023-04-01T04:53:51;9.90;99.90
59146;DHT22;44928;53.074;6.646;2023-04-01T04:56:18;9.90;99.90
59146;DHT22;44928;53.074;6.646;2023-04-01T04:58:45;9.90;99.90
59146;DHT22;44928;53.074;6.646;2023-04-01T05:01:13;9.90;99.90
59146;DHT22;44928;53.074;6.646;2023-04-01T05:03:40;9.90;99.90
59146;DHT22;44928;53.074;6.646;2023-04-01T05:06:07;9.90;99.90
59146;DHT22;44928;53.074;6.646;2023-04-01T05:08:33;9.90;99.90
59146;DHT22;44928;53.074;6.646;2023-04-01T05:11:00;9.90;99.90
59146;DHT22;44928;53.074;6.646;2023-04-01T05:13:27;9.90;99.90
59146;DHT22;44928;53.074;6.646;2023-04-01T05:15:53;9.90;99.90
59146;DHT22;44928;53.074;6.646;2023-04-01T05:18:19;9.90;99.90
59146;DHT22;44928;53.074;6.646;2023-04-01T05:20:49;9.90;99.90
59146;DHT22;44928;53.074;6.646;2023-04-01T05:23:15;9.90;99.90
59146;DHT22;44928;53.074;6.646;2023-04-01T05:25:41;9.90;99.90
59146;DHT22;44928;53.074;6.646;2023-04-01T05:28:07;9.90;99.90
59146;DHT22;44928;53.074;6.646;2023-04-01T05:30:33;9.90;99.90
59146;DHT22;44928;53.074;6.646;2023-04-01T05:32:58;9.90;99.90
59146;DHT22;44928;53.074;6.646;2023-04-01T05:35:25;9.90;99.90
59146;DHT22;44928;53.074;6.646;2023-04-01T05:37:51;9.90;99.90
59146;DHT22;44928;53.074;6.646;2023-04-01T05:40:17;9.90;99.90
59146;DHT22;44928;53.074;6.646;2023-04-01T05:42:43;9.90;99.90
59146;DHT22;44928;53.074;6.646;2023-04-01T05:45:09;9.90;99.90
59146;DHT22;44928;53.074;6.646;2023-04-01T05:47:35;9.80;99.90
59146;DHT22;44928;53.074;6.646;2023-04-01T05:50:01;9.80;99.90
59146;DHT22;44928;53.074;6.646;2023-04-01T05:52:27;9.80;99.90
59146;DHT22;44928;53.074;6.646;2023-04-01T05:54:53;9.80;99.90
59146;DHT22;44928;53.074;6.646;2023-04-01T05:57:18;9.80;99.90
59146;DHT22;44928;53.074;6.646;2023-04-01T05:59:44;9.80;99.90
59146;DHT22;44928;53.074;6.646;2023-04-01T06:02:11;9.80;99.90
59146;DHT22;44928;53.074;6.646;2023-04-01T06:04:40;9.80;99.90
59146;DHT22;44928;53.074;6.646;2023-04-01T06:07:17;9.80;99.90
59146;DHT22;44928;53.074;6.646;2023-04-01T06:09:44;9.80;99.90
59146;DHT22;44928;53.074;6.646;2023-04-01T06:15:06;9.80;99.90
59146;DHT22;44928;53.074;6.646;2023-04-01T06:20:25;9.80;99.90
59146;DHT22;44928;53.074;6.646;2023-04-01T06:33:50;9.90;99.90
59146;DHT22;44928;53.074;6.646;2023-04-01T06:47:30;9.90;99.90
59146;DHT22;44928;53.074;6.646;2023-04-01T06:52:56;9.90;99.90
59146;DHT22;44928;53.074;6.646;2023-04-01T06:58:06;10.00;99.90
59146;DHT22;44928;53.074;6.646;2023-04-01T07:00:39;10.00;99.90
59146;DHT22;44928;53.074;6.646;2023-04-01T07:03:34;10.00;99.90
59146;DHT22;44928;53.074;6.646;2023-04-01T07:06:04;10.00;99.90
59146;DHT22;44928;53.074;6.646;2023-04-01T07:08:35;10.00;99.90
59146;DHT22;44928;53.074;6.646;2023-04-01T07:11:04;10.00;99.90
59146;DHT22;44928;53.074;6.646;2023-04-01T07:16:18;10.00;99.90
59146;DHT22;44928;53.074;6.646;2023-04-01T07:18:48;10.00;99.90
59146;DHT22;44928;53.074;6.646;2023-04-01T07:21:29;10.00;99.90
59146;DHT22;44928;53.074;6.646;2023-04-01T07:23:59;10.00;99.90
59146;DHT22;44928;53.074;6.646;2023-04-01T07:26:26;10.00;99.90
59146;DHT22;44928;53.074;6.646;2023-04-01T07:28:53;10.00;99.90
59146;DHT22;44928;53.074;6.646;2023-04-01T07:38:09;10.00;99.90
59146;DHT22;44928;53.074;6.646;2023-04-01T07:57:03;10.10;99.90
59146;DHT22;44928;53.074;6.646;2023-04-01T08:00:04;10.20;99.90
59146;DHT22;44928;53.074;6.646;2023-04-01T08:10:47;10.30;99.90
59146;DHT22;44928;53.074;6.646;2023-04-01T08:15:56;10.40;99.90
59146;DHT22;44928;53.074;6.646;2023-04-01T08:18:38;10.50;99.90
59146;DHT22;44928;53.074;6.646;2023-04-01T08:21:17;10.50;99.90
59146;DHT22;44928;53.074;6.646;2023-04-01T08:23:49;10.50;99.90
59146;DHT22;44928;53.074;6.646;2023-04-01T08:29:00;10.60;99.90
59146;DHT22;44928;53.074;6.646;2023-04-01T08:31:43;10.60;99.90
59146;DHT22;44928;53.074;6.646;2023-04-01T08:34:19;10.60;99.90
59146;DHT22;44928;53.074;6.646;2023-04-01T08:36:57;10.60;99.90
59146;DHT22;44928;53.074;6.646;2023-04-01T08:39:37;10.60;99.90
59146;DHT22;44928;53.074;6.646;2023-04-01T08:56:21;10.80;99.90
59146;DHT22;44928;53.074;6.646;2023-04-01T09:04:41;10.80;99.90
59146;DHT22;44928;53.074;6.646;2023-04-01T09:37:51;11.00;99.90
59146;DHT22;44928;53.074;6.646;2023-04-01T09:40:55;11.00;99.90
59146;DHT22;44928;53.074;6.646;2023-04-01T09:57:13;10.90;99.90
59146;DHT22;44928;53.074;6.646;2023-04-01T10:00:10;10.80;99.90
59146;DHT22;44928;53.074;6.646;2023-04-01T10:16:52;10.40;99.90
59146;DHT22;44928;53.074;6.646;2023-04-01T10:33:16;10.30;99.90
59146;DHT22;44928;53.074;6.646;2023-04-01T10:39:06;10.20;99.90
59146;DHT22;44928;53.074;6.646;2023-04-01T11:10:25;10.10;99.90
59146;DHT22;44928;53.074;6.646;2023-04-01T11:13:18;10.10;99.90
59146;DHT22;44928;53.074;6.646;2023-04-01T11:37:37;10.00;99.90
59146;DHT22;44928;53.074;6.646;2023-04-01T11:48:19;10.10;99.90
59146;DHT22;44928;53.074;6.646;2023-04-01T11:51:08;10.10;99.90
59146;DHT22;44928;53.074;6.646;2023-04-01T11:53:56;10.20;99.90
59146;DHT22;44928;53.074;6.646;2023-04-01T12:07:14;10.30;99.90
59146;DHT22;44928;53.074;6.646;2023-04-01T12:10:39;10.30;99.90
59146;DHT22;44928;53.074;6.646;2023-04-01T12:18:31;10.30;99.90
59146;DHT22;44928;53.074;6.646;2023-04-01T12:21:02;10.30;99.90
59146;DHT22;44928;53.074;6.646;2023-04-01T12:26:48;10.40;99.90
59146;DHT22;44928;53.074;6.646;2023-04-01T12:29:36;10.40;99.90
59146;DHT22;44928;53.074;6.646;2023-04-01T12:35:05;10.40;99.90
59146;DHT22;44928;53.074;6.646;2023-04-01T12:48:36;10.30;99.90
59146;DHT22;44928;53.074;6.646;2023-04-01T12:54:39;10.40;99.90
59146;DHT22;44928;53.074;6.646;2023-04-01T12:57:29;10.40;99.90
59146;DHT22;44928;53.074;6.646;2023-04-01T13:08:20;10.30;99.90
59146;DHT22;44928;53.074;6.646;2023-04-01T13:11:33;10.20;99.90
59146;DHT22;44928;53.074;6.646;2023-04-01T13:16:46;10.10;99.90
59146;DHT22;44928;53.074;6.646;2023-04-01T13:19:25;10.10;99.90
59146;DHT22;44928;53.074;6.646;2023-04-01T13:35:57;10.00;99.90
59146;DHT22;44928;53.074;6.646;2023-04-01T13:41:36;10.00;99.90
59146;DHT22;44928;53.074;6.646;2023-04-01T13:44:40;10.00;99.90
59146;DHT22;44928;53.074;6.646;2023-04-01T13:50:26;10.00;99.90
59146;DHT22;44928;53.074;6.646;2023-04-01T14:01:46;9.80;99.90
59146;DHT22;44928;53.074;6.646;2023-04-01T14:04:35;9.80;99.90
59146;DHT22;44928;53.074;6.646;2023-04-01T14:07:26;9.80;99.90
59146;DHT22;44928;53.074;6.646;2023-04-01T14:15:48;9.80;99.90
59146;DHT22;44928;53.074;6.646;2023-04-01T14:27:03;9.70;99.90
59146;DHT22;44928;53.074;6.646;2023-04-01T14:34:55;9.70;99.90
59146;DHT22;44928;53.074;6.646;2023-04-01T14:52:05;9.50;99.90
59146;DHT22;44928;53.074;6.646;2023-04-01T14:54:37;9.40;99.90
59146;DHT22;44928;53.074;6.646;2023-04-01T15:00:12;9.40;99.90
59146;DHT22;44928;53.074;6.646;2023-04-01T15:08:36;9.30;99.90
59146;DHT22;44928;53.074;6.646;2023-04-01T15:24:43;9.20;99.90
59146;DHT22;44928;53.074;6.646;2023-04-01T15:27:27;9.10;99.90
59146;DHT22;44928;53.074;6.646;2023-04-01T15:35:39;9.00;99.90
59146;DHT22;44928;53.074;6.646;2023-04-01T15:45:01;8.80;99.90
59146;DHT22;44928;53.074;6.646;2023-04-01T15:47:39;8.90;99.90
59146;DHT22;44928;53.074;6.646;2023-04-01T15:55:36;8.80;99.90
59146;DHT22;44928;53.074;6.646;2023-04-01T15:58:16;8.70;99.90
59146;DHT22;44928;53.074;6.646;2023-04-01T16:23:40;8.40;99.90
59146;DHT22;44928;53.074;6.646;2023-04-01T16:26:39;8.40;99.90
59146;DHT22;44928;53.074;6.646;2023-04-01T16:29:33;8.30;99.90
59146;DHT22;44928;53.074;6.646;2023-04-01T16:37:52;8.20;99.90
59146;DHT22;44928;53.074;6.646;2023-04-01T16:43:21;8.10;99.90
59146;DHT22;44928;53.074;6.646;2023-04-01T16:48:34;8.10;99.90
59146;DHT22;44928;53.074;6.646;2023-04-01T16:51:04;8.00;99.90
59146;DHT22;44928;53.074;6.646;2023-04-01T16:53:43;8.00;99.90
59146;DHT22;44928;53.074;6.646;2023-04-01T16:56:52;8.00;99.90
59146;DHT22;44928;53.074;6.646;2023-04-01T16:59:24;8.00;99.90
59146;DHT22;44928;53.074;6.646;2023-04-01T17:26:01;7.80;99.90
59146;DHT22;44928;53.074;6.646;2023-04-01T17:40:00;7.60;99.90
59146;DHT22;44928;53.074;6.646;2023-04-01T17:42:56;7.60;99.90
59146;DHT22;44928;53.074;6.646;2023-04-01T17:45:30;7.60;99.90
59146;DHT22;44928;53.074;6.646;2023-04-01T17:53:24;7.50;99.90
59146;DHT22;44928;53.074;6.646;2023-04-01T17:56:11;7.50;99.90
59146;DHT22;44928;53.074;6.646;2023-04-01T17:58:52;7.40;99.90
59146;DHT22;44928;53.074;6.646;2023-04-01T18:01:30;7.40;99.90
59146;DHT22;44928;53.074;6.646;2023-04-01T18:04:23;7.40;99.90
59146;DHT22;44928;53.074;6.646;2023-04-01T18:11:47;7.20;99.90
59146;DHT22;44928;53.074;6.646;2023-04-01T18:22:20;7.10;99.90
59146;DHT22;44928;53.074;6.646;2023-04-01T18:30:39;7.10;99.90
59146;DHT22;44928;53.074;6.646;2023-04-01T18:33:24;7.10;99.90
59146;DHT22;44928;53.074;6.646;2023-04-01T18:38:40;7.00;99.90
59146;DHT22;44928;53.074;6.646;2023-04-01T18:41:30;7.00;99.90
59146;DHT22;44928;53.074;6.646;2023-04-01T18:44:28;7.00;99.90
59146;DHT22;44928;53.074;6.646;2023-04-01T18:52:16;7.00;99.90
59146;DHT22;44928;53.074;6.646;2023-04-01T18:57:49;7.00;99.90
59146;DHT22;44928;53.074;6.646;2023-04-01T19:00:32;6.90;99.90
59146;DHT22;44928;53.074;6.646;2023-04-01T19:03:07;6.90;99.90
59146;DHT22;44928;53.074;6.646;2023-04-01T19:05:40;6.90;99.90
59146;DHT22;44928;53.074;6.646;2023-04-01T19:08:31;6.90;99.90
59146;DHT22;44928;53.074;6.646;2023-04-01T19:11:08;6.90;99.90
59146;DHT22;44928;53.074;6.646;2023-04-01T19:16:40;6.90;99.90
59146;DHT22;44928;53.074;6.646;2023-04-01T19:21:58;6.90;99.90
59146;DHT22;44928;53.074;6.646;2023-04-01T19:41:16;6.70;99.90
59146;DHT22;44928;53.074;6.646;2023-04-01T19:48:59;6.60;99.90
59146;DHT22;44928;53.074;6.646;2023-04-01T19:51:51;6.60;99.90
59146;DHT22;44928;53.074;6.646;2023-04-01T20:03:01;6.50;99.90
59146;DHT22;44928;53.074;6.646;2023-04-01T20:06:17;6.50;99.90
59146;DHT22;44928;53.074;6.646;2023-04-01T20:27:49;6.30;99.90
59146;DHT22;44928;53.074;6.646;2023-04-01T20:35:39;6.30;99.90
59146;DHT22;44928;53.074;6.646;2023-04-01T20:44:13;6.20;99.90
59146;DHT22;44928;53.074;6.646;2023-04-01T20:46:48;6.20;99.90
59146;DHT22;44928;53.074;6.646;2023-04-01T20:49:47;6.20;99.90
59146;DHT22;44928;53.074;6.646;2023-04-01T20:55:01;6.10;99.90
59146;DHT22;44928;53.074;6.646;2023-04-01T21:00:39;6.20;99.90
59146;DHT22;44928;53.074;6.646;2023-04-01T21:14:55;6.10;99.90
59146;DHT22;44928;53.074;6.646;2023-04-01T21:20:44;6.10;99.90
59146;DHT22;44928;53.074;6.646;2023-04-01T21:31:48;6.00;99.90
59146;DHT22;44928;53.074;6.646;2023-04-01T21:43:08;6.00;99.90
59146;DHT22;44928;53.074;6.646;2023-04-01T21:51:09;5.90;99.90
59146;DHT22;44928;53.074;6.646;2023-04-01T21:53:56;5.90;99.90
59146;DHT22;44928;53.074;6.646;2023-04-01T22:13:13;5.80;99.90
59146;DHT22;44928;53.074;6.646;2023-04-01T22:26:58;5.70;99.90
59146;DHT22;44928;53.074;6.646;2023-04-01T22:29:34;5.70;99.90
59146;DHT22;44928;53.074;6.646;2023-04-01T22:32:15;5.70;99.90
59146;DHT22;44928;53.074;6.646;2023-04-01T22:35:10;5.70;99.90
59146;DHT22;44928;53.074;6.646;2023-04-01T22:40:30;5.60;99.90
59146;DHT22;44928;53.074;6.646;2023-04-01T22:43:06;5.60;99.90
59146;DHT22;44928;53.074;6.646;2023-04-01T22:48:21;5.60;99.90
59146;DHT22;44928;53.074;6.646;2023-04-01T22:53:32;5.50;99.90
59146;DHT22;44928;53.074;6.646;2023-04-01T22:56:06;5.50;99.90
59146;DHT22;44928;53.074;6.646;2023-04-01T22:58:42;5.40;99.90
59146;DHT22;44928;53.074;6.646;2023-04-01T23:01:20;5.40;99.90
59146;DHT22;44928;53.074;6.646;2023-04-01T23:03:49;5.40;99.90
59146;DHT22;44928;53.074;6.646;2023-04-01T23:06:42;5.40;99.90
59146;DHT22;44928;53.074;6.646;2023-04-01T23:09:28;5.30;99.90
59146;DHT22;44928;53.074;6.646;2023-04-01T23:14:56;5.30;99.90
59146;DHT22;44928;53.074;6.646;2023-04-01T23:23:35;5.20;99.90
59146;DHT22;44928;53.074;6.646;2023-04-01T23:26:12;5.20;99.90
59146;DHT22;44928;53.074;6.646;2023-04-01T23:28:49;5.20;99.90
59146;DHT22;44928;53.074;6.646;2023-04-01T23:31:38;5.20;99.90
59146;DHT22;44928;53.074;6.646;2023-04-01T23:36:47;5.20;99.90
59146;DHT22;44928;53.074;6.646;2023-04-01T23:39:25;5.20;99.90
59146;DHT22;44928;53.074;6.646;2023-04-01T23:41:55;5.20;99.90
59146;DHT22;44928;53.074;6.646;2023-04-01T23:44:24;5.10;99.90
59146;DHT22;44928;53.074;6.646;2023-04-01T23:46:51;5.00;99.90
59146;DHT22;44928;53.074;6.646;2023-04-01T23:49:39;5.00;99.90
59146;DHT22;44928;53.074;6.646;2023-04-01T23:52:20;5.00;99.90
59146;DHT22;44928;53.074;6.646;2023-04-01T23:54:58;4.90;99.90
59146;DHT22;44928;53.074;6.646;2023-04-01T23:57:33;4.90;99.90
